»·PEaware :: N300BZ KASE-KABQ

N300BZ :: KASE-KABQ

FLIGHT INFORMATION

Flight Status: Arrived
Operator: Privately registered:
United States
More flights under this callsign
Pilot: Christian A. (580)
Aircraft: BOMBARDIER BD-100 CHALLENGER 300
(CL30)
More flights by this aircraft type
Origin: KASE Aspen-Pitkin Co/Sardy
United States
Destination: KABQ Albuquerque Intl Sunport
United States
More flights between these airports :: More routes between these airports
Route: +ASPE7 HBU J10 RSK J15 TANER CURLY3
File this flight plan on PilotEdge
Remarks:
Altitude:
(Current/Filed)
32,000ft
Speed:
(Current/Filed)
440kts
Departed: 28-Dec-17 10:14 PM
Arrived: 28-Dec-17 11:02 PM
Distance/Time
Traveled:
252nm/0:48
Distance/Time
To Go:
Arrived

Flight Plot

Page will automatically refresh every two minutes.

Flight plan parsing failed; only flown route is shown


Map Options




Map Legend


Flown Route
Filed Route
Departure Airport
Arrival Airport
Navaid (VOR, NDB)
Fix

Horizontal Profiles

Position Reports

Time Latitude Longitude Heading Altitude Ground
Speed
28-Dec-17 22:02 39.224163 -106.867169 251 7737ft 0kts
28-Dec-17 22:03 39.224163 -106.867169 251 7737ft 0kts
28-Dec-17 22:04 39.224163 -106.867169 251 7737ft 0kts
28-Dec-17 22:05 39.224163 -106.867169 251 7737ft 0kts
28-Dec-17 22:06 39.224163 -106.867169 251 7737ft 0kts
28-Dec-17 22:07 39.224163 -106.867169 251 7737ft 0kts
28-Dec-17 22:08 39.224163 -106.867169 251 7737ft 0kts
28-Dec-17 22:09 39.224163 -106.867169 251 7737ft 0kts
28-Dec-17 22:10 39.224163 -106.867169 251 7737ft 0kts
28-Dec-17 22:11 39.224163 -106.867169 251 7737ft 0kts
28-Dec-17 22:12 39.224163 -106.867169 251 7737ft 0kts
28-Dec-17 22:13 39.224163 -106.867169 251 7737ft 0kts
28-Dec-17 22:14 39.223983 -106.867846 248 7735ft 9kts
28-Dec-17 22:15 39.219997 -106.866151 160 7765ft 19kts
28-Dec-17 22:16 39.215455 -106.864066 162 7795ft 15kts
28-Dec-17 22:17 39.215254 -106.863991 168 7796ft 0kts
28-Dec-17 22:18 39.215254 -106.863991 168 7796ft 0kts
28-Dec-17 22:19 39.215114 -106.865015 338 7795ft 7kts
28-Dec-17 22:20 39.254123 -106.874580 357 9113ft 238kts
28-Dec-17 22:21 39.319807 -106.869485 356 12902ft 241kts
28-Dec-17 22:22 39.362885 -106.910316 260 16665ft 267kts
28-Dec-17 22:23 39.322782 -106.992027 203 20823ft 333kts
28-Dec-17 22:24 39.215031 -106.986710 183 23404ft 404kts
28-Dec-17 22:25 39.105688 -106.981065 190 27217ft 403kts
28-Dec-17 22:26 38.991123 -106.986225 190 29896ft 428kts
28-Dec-17 22:27 38.873777 -106.995733 190 31382ft 465kts
28-Dec-17 22:28 38.740672 -107.009665 189 31391ft 494kts
28-Dec-17 22:29 38.614453 -107.021032 189 31391ft 491kts
28-Dec-17 22:30 38.479321 -107.032951 189 31393ft 488kts
28-Dec-17 22:31 38.361181 -107.095839 213 31394ft 466kts
28-Dec-17 22:32 38.246123 -107.170384 213 31394ft 467kts
28-Dec-17 22:33 38.130636 -107.243736 213 31394ft 467kts
28-Dec-17 22:34 38.015043 -107.316669 212 31415ft 467kts
28-Dec-17 22:35 37.899838 -107.389065 212 31449ft 467kts
28-Dec-17 22:36 37.786685 -107.459907 212 31431ft 467kts
28-Dec-17 22:37 37.671298 -107.531903 212 31413ft 467kts
28-Dec-17 22:38 37.555803 -107.603716 212 31394ft 467kts
28-Dec-17 22:39 37.442288 -107.674058 212 31391ft 468kts
28-Dec-17 22:40 37.331555 -107.742443 212 31387ft 468kts
28-Dec-17 22:41 37.215477 -107.813885 212 31388ft 469kts
28-Dec-17 22:42 37.099366 -107.885117 212 31387ft 469kts
28-Dec-17 22:43 36.982332 -107.956805 210 31389ft 475kts
28-Dec-17 22:44 36.866869 -108.027042 209 31371ft 481kts
28-Dec-17 22:45 36.740060 -108.064982 164 31329ft 495kts
28-Dec-17 22:46 36.616734 -107.992849 149 31364ft 496kts
28-Dec-17 22:47 36.498487 -107.905986 147 31366ft 497kts
28-Dec-17 22:48 36.381696 -107.817321 147 31367ft 497kts
28-Dec-17 22:49 36.264581 -107.728206 147 31369ft 497kts
28-Dec-17 22:50 36.147482 -107.639297 147 31371ft 498kts
28-Dec-17 22:51 36.030913 -107.551046 147 29533ft 490kts
28-Dec-17 22:52 35.915858 -107.464259 147 26993ft 484kts
28-Dec-17 22:53 35.807424 -107.382777 148 24496ft 462kts
28-Dec-17 22:54 35.703817 -107.305130 148 21989ft 439kts
28-Dec-17 22:55 35.602524 -107.229526 149 19485ft 420kts
28-Dec-17 22:56 35.505574 -107.157338 149 16952ft 402kts
28-Dec-17 22:57 35.413604 -107.089048 149 14788ft 375kts
28-Dec-17 22:58 35.329198 -107.026539 149 12775ft 339kts
28-Dec-17 22:59 35.252092 -106.969549 149 10780ft 316kts
28-Dec-17 23:00 35.181212 -106.917278 150 9441ft 290kts
28-Dec-17 23:01 35.115116 -106.868534 149 9005ft 268kts
28-Dec-17 23:02 35.054052 -106.820155 148 9009ft 260kts
28-Dec-17 23:03 34.997373 -106.775231 148 8996ft 211kts
28-Dec-17 23:04 34.961769 -106.732015 114 7462ft 162kts
28-Dec-17 23:05 34.973865 -106.688283 38 6783ft 138kts
28-Dec-17 23:06 34.998921 -106.658645 40 5862ft 126kts
28-Dec-17 23:07 35.023009 -106.629693 41 5319ft 117kts
28-Dec-17 23:08 35.033742 -106.617766 6 5311ft 7kts
28-Dec-17 23:09 35.035836 -106.619159 62 5309ft 0kts
28-Dec-17 23:10 35.035836 -106.619159 62 5309ft 0kts
28-Dec-17 23:11 35.035836 -106.619159 62 5309ft 0kts
28-Dec-17 23:12 35.035836 -106.619159 62 5309ft 0kts
28-Dec-17 23:13 35.035836 -106.619159 62 5309ft 0kts
28-Dec-17 23:14 35.035836 -106.619159 62 5309ft 0kts
28-Dec-17 23:15 35.035836 -106.619159 62 5309ft 0kts
28-Dec-17 23:16 35.035836 -106.619159 62 5309ft 0kts
28-Dec-17 23:17 35.035836 -106.619159 62 5309ft 0kts
28-Dec-17 23:18 35.035836 -106.619159 62 5309ft 0kts
28-Dec-17 23:19 35.035836 -106.619159 62 5309ft 0kts
28-Dec-17 23:20 35.035836 -106.619159 62 5309ft 0kts
28-Dec-17 23:21 35.035836 -106.619159 62 5309ft 0kts
28-Dec-17 23:22 35.035836 -106.619159 62 5309ft 0kts
28-Dec-17 23:23 35.035836 -106.619159 62 5309ft 0kts

Navigation Log

Ident Type
Flight plan parsing failed, navigation log unavailable